Time;durP1;ratioP1;P1;durP2;ratioP2;P2;SDS_P1;SDS_P2;PMS_P1;PMS_P2;Temp;Humidity;BMP_temperature;BMP_pressure;BME280_temperature;BME280_humidity;BME280_pressure;Samples;Min_cycle;Max_cycle;Signal;HPM_P1;HPM_P2
2021/12/08 00:00:36;;;;;;;5.07;2.47;;;;;;;-1.40;86.24;100820.38;4792954;29;20039;-76
2021/12/08 00:03:04;;;;;;;10.77;4.00;;;;;;;-1.24;86.00;100840.16;4820442;29;20035;-77
2021/12/08 00:05:29;;;;;;;7.05;2.80;;;;;;;-1.08;85.71;100857.44;4792285;29;20027;-77
2021/12/08 00:07:55;;;;;;;12.07;3.95;;;;;;;-1.24;86.01;100842.81;4792251;29;20087;-76
2021/12/08 00:13:06;;;;;;;9.48;3.35;;;;;;;-1.18;86.26;100846.78;4805616;29;20077;-77
2021/12/08 00:15:37;;;;;;;43.17;12.55;;;;;;;-1.28;85.83;100843.19;4809507;29;20023;-77
2021/12/08 00:18:05;;;;;;;5.53;2.45;;;;;;;-1.09;86.06;100848.69;4808432;29;20038;-77
2021/12/08 00:20:32;;;;;;;9.85;2.92;;;;;;;-1.09;85.82;100830.19;4809215;29;20023;-77
2021/12/08 00:22:59;;;;;;;16.55;5.72;;;;;;;-1.16;86.00;100842.19;4809951;29;20114;-77
2021/12/08 00:25:27;;;;;;;6.30;2.33;;;;;;;-1.17;85.65;100839.69;4807720;29;20037;-76
2021/12/08 00:27:53;;;;;;;25.23;7.78;;;;;;;-1.21;85.62;100839.09;4804667;29;20073;-77
2021/12/08 00:30:18;;;;;;;16.90;4.85;;;;;;;-1.21;86.01;100833.81;4811119;29;20121;-77
2021/12/08 00:32:45;;;;;;;2.67;1.65;;;;;;;-1.24;85.91;100834.06;4815647;29;20043;-77
2021/12/08 00:35:12;;;;;;;3.65;2.25;;;;;;;-1.17;85.34;100842.31;4830140;29;20084;-78
2021/12/08 00:37:38;;;;;;;3.90;2.63;;;;;;;-1.52;84.96;100778.19;4820349;29;20447;-77
2021/12/08 00:40:07;;;;;;;2.40;1.70;;;;;;;-1.10;85.43;100841.69;4823214;29;20035;-77
2021/12/08 00:42:33;;;;;;;2.83;1.77;;;;;;;-1.27;84.78;100836.94;4816132;29;20121;-77
2021/12/08 00:45:00;;;;;;;3.10;1.85;;;;;;;-1.13;85.10;100841.94;4812452;29;20153;-77
2021/12/08 00:47:26;;;;;;;3.05;1.60;;;;;;;-1.23;85.17;100817.25;4814624;29;20090;-77
2021/12/08 00:49:52;;;;;;;2.00;1.70;;;;;;;-1.07;84.79;100825.59;4796671;29;20591;-77
2021/12/08 00:52:18;;;;;;;3.00;1.65;;;;;;;-1.07;84.93;100835.34;4822999;29;20146;-77
2021/12/08 00:54:43;;;;;;;5.97;1.90;;;;;;;-1.16;84.47;100828.16;4807547;29;20030;-77
2021/12/08 00:57:10;;;;;;;2.60;1.67;;;;;;;-1.05;84.82;100823.69;4807680;29;20370;-77
2021/12/08 00:59:35;;;;;;;4.03;1.60;;;;;;;-1.03;84.77;100836.75;4807400;29;20035;-77
2021/12/08 01:02:02;;;;;;;4.53;2.17;;;;;;;-1.00;84.35;100836.53;4808847;29;20357;-77
2021/12/08 01:04:35;;;;;;;1.85;1.20;;;;;;;-1.02;84.73;100831.38;4806072;29;20095;-77
2021/12/08 01:07:01;;;;;;;3.28;1.75;;;;;;;-0.97;84.69;100838.91;4808197;29;20031;-77
2021/12/08 01:09:27;;;;;;;2.53;1.55;;;;;;;-1.04;84.43;100828.00;4808164;29;20042;-77
2021/12/08 01:11:54;;;;;;;4.15;1.70;;;;;;;-1.42;84.00;100775.66;4808095;29;20031;-77
2021/12/08 01:14:20;;;;;;;2.88;1.45;;;;;;;-1.02;nan;100825.25;4807900;29;20069;-77
2021/12/08 01:16:45;;;;;;;2.20;1.30;;;;;;;-1.09;83.55;100830.19;4808285;29;20066;-77
2021/12/08 01:19:11;;;;;;;2.47;1.42;;;;;;;-1.17;84.16;100808.00;4807006;29;20432;-77
2021/12/08 01:21:36;;;;;;;2.38;1.42;;;;;;;-1.08;83.93;100823.94;4806542;29;20102;-77
2021/12/08 01:24:03;;;;;;;3.30;1.63;;;;;;;-1.06;83.85;100816.75;4807433;29;20035;-78
2021/12/08 01:26:29;;;;;;;1.88;1.40;;;;;;;-1.18;83.83;100812.44;4807404;29;20677;-77
2021/12/08 01:28:56;;;;;;;4.50;1.70;;;;;;;-1.05;83.53;100813.13;4808857;29;20046;-77
2021/12/08 01:31:26;;;;;;;2.83;1.40;;;;;;;-1.27;83.80;100799.97;4807297;29;20111;-77
2021/12/08 01:33:51;;;;;;;2.70;1.70;;;;;;;-1.09;83.73;100817.00;4808360;29;20059;-77
2021/12/08 01:36:18;;;;;;;2.63;1.25;;;;;;;-1.07;83.51;100815.03;4806958;29;20058;-78
2021/12/08 01:38:44;;;;;;;2.90;1.58;;;;;;;-1.04;83.51;100816.63;4808116;29;20059;-77
2021/12/08 01:41:09;;;;;;;3.33;1.80;;;;;;;-1.05;83.90;100818.41;4808496;29;20343;-77
2021/12/08 01:46:22;;;;;;;1.85;1.17;;;;;;;-1.16;83.82;100807.03;4808257;29;20114;-77
2021/12/08 01:48:47;;;;;;;1.90;1.08;;;;;;;-1.11;83.89;100797.78;4808611;29;20042;-77
2021/12/08 01:51:17;;;;;;;2.10;1.23;;;;;;;-1.06;83.83;100797.41;4806029;29;20117;-77
2021/12/08 01:53:50;;;;;;;3.67;1.50;;;;;;;-1.03;83.78;100811.19;4807320;29;20069;-77
2021/12/08 01:56:18;;;;;;;3.67;1.52;;;;;;;-1.00;83.27;100807.47;4807253;29;20466;-78
2021/12/08 01:58:45;;;;;;;3.38;1.75;;;;;;;-1.15;83.42;100792.88;4808121;29;20477;-77
2021/12/08 02:01:13;;;;;;;3.83;2.00;;;;;;;-1.05;83.23;100797.28;4793932;29;20039;-77
2021/12/08 02:03:41;;;;;;;2.80;1.58;;;;;;;-1.48;83.38;100733.91;4792951;29;20165;-77
2021/12/08 02:06:08;;;;;;;2.85;1.67;;;;;;;-1.06;83.51;100786.84;4788790;29;20047;-77
2021/12/08 02:08:36;;;;;;;2.70;1.38;;;;;;;-1.07;83.61;100782.53;4800995;29;20420;-77
2021/12/08 02:11:03;;;;;;;2.83;1.70;;;;;;;-1.08;83.64;100784.34;4807999;29;20117;-77
2021/12/08 02:13:35;;;;;;;3.22;1.80;;;;;;;-1.03;83.79;100786.59;4807482;29;20091;-77
2021/12/08 02:16:02;;;;;;;2.53;1.45;;;;;;;-1.12;83.44;100785.56;4793004;29;20027;-77
2021/12/08 02:18:28;;;;;;;3.10;1.55;;;;;;;-1.12;83.78;100780.28;4806412;29;20039;-77
2021/12/08 02:20:58;;;;;;;1.83;1.40;;;;;;;-1.10;83.89;100766.94;4808021;29;20099;-77
2021/12/08 02:23:24;;;;;;;3.65;1.50;;;;;;;-1.02;83.59;100768.00;4806221;29;20023;-77
2021/12/08 02:25:49;;;;;;;3.10;1.70;;;;;;;-1.08;83.87;100765.84;4806281;29;20469;-77
2021/12/08 02:28:15;;;;;;;2.35;1.42;;;;;;;-1.04;83.95;100769.91;4806443;29;20103;-77
2021/12/08 02:49:24;;;;;;;3.30;1.83;;;;;;;-1.04;84.59;100753.22;4807361;29;20118;-77
2021/12/08 02:51:51;;;;;;;3.20;1.80;;;;;;;-1.04;84.13;100740.84;4810292;29;20043;-77
2021/12/08 02:54:19;;;;;;;2.42;1.50;;;;;;;-1.14;84.51;100736.47;4808247;29;20080;-77
2021/12/08 02:56:44;;;;;;;2.65;1.77;;;;;;;-1.15;84.63;100727.72;4814798;29;20107;-77
2021/12/08 02:59:10;;;;;;;2.63;1.70;;;;;;;-1.11;84.63;100713.28;4805486;29;20034;-77
2021/12/08 03:01:37;;;;;;;3.17;1.75;;;;;;;-1.27;85.07;100728.69;4806428;29;20034;-77
2021/12/08 03:04:05;;;;;;;3.17;2.00;;;;;;;-1.14;84.79;100710.06;4789538;29;20043;-77
2021/12/08 03:06:31;;;;;;;3.08;1.85;;;;;;;-1.22;85.35;100713.34;4788257;29;20070;-77
2021/12/08 03:08:57;;;;;;;3.20;1.75;;;;;;;-1.15;85.37;100719.78;4790908;29;20054;-77
2021/12/08 03:11:22;;;;;;;4.10;2.10;;;;;;;-1.21;85.45;100700.00;4793677;29;20051;-77
2021/12/08 03:14:08;;;;;;;3.30;2.10;;;;;;;-1.06;84.88;100713.75;4798157;29;20026;-77
2021/12/08 03:16:39;;;;;;;4.10;2.05;;;;;;;-1.04;85.32;100698.59;4790348;29;20039;-77
2021/12/08 03:19:04;;;;;;;3.53;2.30;;;;;;;-1.09;85.15;100694.66;4788414;29;20515;-77
2021/12/08 03:21:32;;;;;;;4.00;2.17;;;;;;;-1.05;85.33;100688.19;4807146;29;20130;-77
2021/12/08 03:27:14;;;;;;;5.10;2.33;;;;;;;-1.22;85.73;100679.03;4805882;29;20428;-77
2021/12/08 03:29:54;;;;;;;4.25;2.38;;;;;;;-1.13;86.01;100686.16;4803844;29;20075;-77
2021/12/08 03:32:30;;;;;;;3.80;2.17;;;;;;;-1.06;86.10;100690.00;4805330;29;20038;-77
2021/12/08 03:34:56;;;;;;;4.18;2.20;;;;;;;-1.17;85.63;100663.63;4806504;29;20434;-77
2021/12/08 03:37:25;;;;;;;3.88;2.17;;;;;;;-1.10;85.96;100675.34;4804170;29;20108;-76
2021/12/08 03:39:52;;;;;;;4.30;2.42;;;;;;;-1.05;86.14;100678.47;4807512;29;20031;-77
2021/12/08 03:42:20;;;;;;;4.82;2.25;;;;;;;-1.19;86.39;100676.13;4804779;29;20374;-77
2021/12/08 03:44:55;;;;;;;4.03;2.47;;;;;;;-1.19;86.45;100671.69;4804593;29;20124;-77
2021/12/08 03:47:26;;;;;;;3.53;2.15;;;;;;;-1.10;86.21;100666.59;4788586;29;20451;-78
2021/12/08 03:49:53;;;;;;;5.70;2.50;;;;;;;-1.21;87.02;100655.13;4788444;29;20071;-77
2021/12/08 03:52:20;;;;;;;3.65;2.22;;;;;;;-1.13;86.56;100654.47;4819347;29;20042;-77
2021/12/08 03:54:46;;;;;;;5.70;2.60;;;;;;;-1.14;86.67;100642.25;4806446;29;20047;-77
2021/12/08 03:57:12;;;;;;;5.00;2.40;;;;;;;-1.19;87.21;100639.16;4805579;29;20398;-77
2021/12/08 03:59:37;;;;;;;4.82;2.35;;;;;;;-1.42;87.74;100622.59;4806129;29;20045;-77
2021/12/08 04:02:06;;;;;;;5.05;3.10;;;;;;;-1.23;87.39;100643.84;4807912;29;20049;-77
2021/12/08 04:04:40;;;;;;;5.00;2.35;;;;;;;-1.37;87.71;100638.88;4814125;29;20101;-78
2021/12/08 04:07:06;;;;;;;4.05;2.50;;;;;;;-1.30;87.85;100647.13;4805571;29;20051;-77
2021/12/08 04:09:39;;;;;;;5.05;2.72;;;;;;;-1.22;87.69;100652.63;4805770;29;20039;-78
2021/12/08 04:12:07;;;;;;;3.42;2.33;;;;;;;-1.24;87.85;100654.53;4805580;29;20479;-77
2021/12/08 04:14:36;;;;;;;4.03;2.60;;;;;;;-1.26;87.99;100654.69;4806425;29;20437;-77
2021/12/08 04:17:31;;;;;;;3.35;2.10;;;;;;;-1.24;87.52;100657.19;4805426;29;20034;-77
2021/12/08 04:19:59;;;;;;;4.25;2.10;;;;;;;-1.29;88.18;100649.66;4788937;29;20365;-77
2021/12/08 04:22:30;;;;;;;4.95;2.80;;;;;;;-1.11;87.31;100647.28;4792540;29;20043;-77
2021/12/08 04:24:58;;;;;;;3.97;2.53;;;;;;;-1.32;88.32;100631.41;4807063;29;20094;-77
2021/12/08 04:27:28;;;;;;;6.05;2.90;;;;;;;-1.43;88.18;100636.72;4788100;29;20031;-78
2021/12/08 04:29:54;;;;;;;3.92;2.47;;;;;;;-1.17;88.08;100660.97;4791022;29;20108;-77
2021/12/08 04:32:23;;;;;;;6.63;2.45;;;;;;;-1.12;87.70;100652.69;4808406;29;20042;-77
2021/12/08 04:34:54;;;;;;;4.65;2.70;;;;;;;-1.22;88.27;100644.69;4809150;29;20034;-77
2021/12/08 04:37:28;;;;;;;4.82;2.50;;;;;;;-1.32;88.28;100626.13;4809171;29;20031;-76
2021/12/08 04:40:23;;;;;;;4.70;2.70;;;;;;;-1.22;88.08;100645.53;4806452;29;20031;-77
2021/12/08 04:45:36;;;;;;;4.50;2.35;;;;;;;-1.37;88.75;100617.75;4808712;29;20031;-77
2021/12/08 05:01:22;;;;;;;4.38;2.78;;;;;;;-1.36;88.35;100600.09;4808280;29;20045;-77
2021/12/08 05:09:11;;;;;;;5.45;2.78;;;;;;;-1.09;87.83;100607.53;4809756;29;20039;-76
2021/12/08 05:11:42;;;;;;;3.17;1.92;;;;;;;-1.34;87.56;100599.03;4817135;29;20027;-77
2021/12/08 05:14:15;;;;;;;5.13;2.60;;;;;;;-1.29;87.78;100588.94;4807382;29;20113;-77
2021/12/08 05:16:44;;;;;;;3.58;2.13;;;;;;;-1.25;87.43;100602.72;4808446;29;20022;-77
2021/12/08 05:19:12;;;;;;;3.90;2.17;;;;;;;-1.26;87.66;100617.72;4807733;29;20050;-77
2021/12/08 05:21:47;;;;;;;4.57;2.40;;;;;;;-1.37;87.59;100598.44;4800840;29;20064;-77
2021/12/08 05:24:19;;;;;;;3.55;1.98;;;;;;;-1.28;87.37;100608.25;4807980;29;20434;-77
2021/12/08 05:27:02;;;;;;;3.75;2.13;;;;;;;-1.34;86.54;100608.75;4807980;29;20035;-76
2021/12/08 05:29:33;;;;;;;2.00;1.50;;;;;;;-1.40;86.85;100601.34;4800834;29;20125;-76
2021/12/08 05:32:01;;;;;;;3.45;1.95;;;;;;;-1.40;86.52;100601.34;4810776;29;20083;-77
2021/12/08 05:34:26;;;;;;;3.72;2.25;;;;;;;-1.29;86.45;100603.91;4807948;29;20031;-77
2021/12/08 05:36:52;;;;;;;6.00;2.20;;;;;;;-1.23;86.25;100595.47;4818868;29;20046;-77
2021/12/08 05:39:21;;;;;;;2.33;1.77;;;;;;;-1.23;86.11;100604.22;4809143;29;20046;-77
2021/12/08 05:41:53;;;;;;;5.22;2.08;;;;;;;-1.31;86.17;100604.06;4807739;29;20039;-76
2021/12/08 05:44:20;;;;;;;4.35;2.03;;;;;;;-1.26;85.83;100617.72;4805688;29;20346;-77
2021/12/08 05:46:54;;;;;;;4.63;2.17;;;;;;;-1.26;85.73;100623.00;4810073;29;20053;-76
2021/12/08 05:49:20;;;;;;;3.00;1.90;;;;;;;-1.23;85.85;100628.00;4807157;29;20034;-75
2021/12/08 05:51:49;;;;;;;4.40;2.47;;;;;;;-1.22;85.99;100631.50;4803878;29;20103;-77
2021/12/08 05:54:24;;;;;;;4.72;2.10;;;;;;;-1.26;85.98;100627.41;4798837;29;20031;-76
2021/12/08 05:56:51;;;;;;;5.32;2.72;;;;;;;-1.17;85.79;100624.03;4802741;29;20042;-76
2021/12/08 05:59:18;;;;;;;6.28;2.30;;;;;;;-1.13;85.67;100622.78;4804520;29;20039;-76
2021/12/08 06:01:55;;;;;;;4.45;2.47;;;;;;;-1.21;85.08;100620.78;4785846;29;20125;-76
2021/12/08 06:04:25;;;;;;;3.35;2.10;;;;;;;-1.23;85.67;100616.59;4803485;29;20454;-76
2021/12/08 06:06:51;;;;;;;4.65;2.30;;;;;;;-1.14;85.92;100620.28;4809240;29;20038;-76
2021/12/08 06:09:18;;;;;;;4.80;2.22;;;;;;;-1.29;85.32;100596.00;4792846;29;20067;-76
2021/12/08 06:11:45;;;;;;;7.22;2.58;;;;;;;-1.19;85.56;100608.31;4803715;29;20027;-77
2021/12/08 06:14:12;;;;;;;4.65;2.22;;;;;;;-1.15;85.38;100616.81;4802558;29;20332;-77
2021/12/08 06:16:40;;;;;;;5.22;2.25;;;;;;;-1.14;85.28;100620.28;4801580;29;20030;-76
2021/12/08 06:19:08;;;;;;;4.63;2.40;;;;;;;-1.18;85.20;100603.88;4790710;29;20408;-76
2021/12/08 06:21:35;;;;;;;3.72;2.00;;;;;;;-1.03;85.47;100617.56;4807178;29;20062;-76
2021/12/08 06:24:03;;;;;;;3.35;2.40;;;;;;;-1.09;85.31;100594.31;4803436;29;20031;-76
2021/12/08 06:26:29;;;;;;;4.00;1.95;;;;;;;-0.98;85.04;100610.94;4800195;29;20241;-76
2021/12/08 06:28:56;;;;;;;7.45;2.38;;;;;;;-1.07;85.22;100606.44;4796185;29;20054;-77
2021/12/08 06:31:26;;;;;;;4.40;2.42;;;;;;;-1.06;84.87;100610.78;4799383;29;20070;-77
2021/12/08 06:33:52;;;;;;;4.78;2.22;;;;;;;-1.08;85.33;100617.16;4813816;29;20042;-77
2021/12/08 06:36:40;;;;;;;3.45;2.10;;;;;;;-1.17;85.08;100613.47;4800359;29;20027;-77
2021/12/08 06:39:28;;;;;;;5.68;2.63;;;;;;;-1.10;85.26;100603.22;4802090;29;20063;-77
2021/12/08 06:42:00;;;;;;;9.55;2.30;;;;;;;-0.98;85.21;100616.22;4802771;29;20072;-76
2021/12/08 06:44:36;;;;;;;6.45;2.60;;;;;;;-0.97;85.19;100614.44;4801293;29;20049;-77
2021/12/08 06:47:05;;;;;;;5.15;2.65;;;;;;;-1.05;85.25;100615.06;4812881;29;20045;-76
2021/12/08 06:49:31;;;;;;;5.38;2.47;;;;;;;-1.03;85.19;100621.06;4801134;29;20031;-77
2021/12/08 06:52:05;;;;;;;4.80;2.15;;;;;;;-1.00;85.24;100622.59;4805085;29;20044;-77
2021/12/08 06:54:37;;;;;;;3.45;2.20;;;;;;;-1.13;84.99;100611.41;4806032;29;20026;-77
2021/12/08 06:57:19;;;;;;;4.78;2.67;;;;;;;-1.06;84.56;100608.13;4807161;29;20045;-77
2021/12/08 07:00:01;;;;;;;3.17;1.92;;;;;;;-1.34;85.12;100596.38;4806752;29;20043;-77
2021/12/08 07:02:54;;;;;;;3.97;2.00;;;;;;;-1.28;85.33;100598.53;4812112;29;20042;-77
2021/12/08 07:06:02;;;;;;;4.43;2.47;;;;;;;-1.24;85.25;100604.38;4802221;29;20063;-77
2021/12/08 07:08:18;;;;;;;4.70;2.60;;;;;;;-1.06;85.38;100613.41;4804992;29;20062;-77
2021/12/08 07:10:47;;;;;;;4.57;2.45;;;;;;;-1.06;85.32;100620.47;4806523;29;20049;-77
2021/12/08 07:13:16;;;;;;;5.63;2.65;;;;;;;-1.03;85.66;100601.72;4804556;29;20523;-76
2021/12/08 07:16:11;;;;;;;5.18;2.45;;;;;;;-1.16;85.89;100601.09;4803142;29;20042;-77
2021/12/08 07:18:52;;;;;;;6.65;2.92;;;;;;;-1.10;86.16;100604.06;4803113;29;20065;-77
2021/12/08 07:21:19;;;;;;;9.07;2.97;;;;;;;-1.20;86.20;100596.06;4804337;29;20038;-77
2021/12/08 07:23:51;;;;;;;9.05;2.53;;;;;;;-1.17;86.50;100602.91;4804269;29;20039;-77
2021/12/08 07:26:21;;;;;;;5.28;2.70;;;;;;;-1.11;86.63;100598.91;4805212;29;20103;-77
2021/12/08 07:28:49;;;;;;;8.35;3.10;;;;;;;-1.12;86.52;100581.41;4804580;29;20411;-77
2021/12/08 07:31:23;;;;;;;5.57;3.42;;;;;;;-1.09;86.90;100589.91;4805558;29;20061;-77
2021/12/08 07:33:49;;;;;;;7.13;3.20;;;;;;;-1.13;86.61;100577.06;4804286;29;20098;-77
2021/12/08 07:36:17;;;;;;;7.60;3.65;;;;;;;-1.05;86.69;100562.25;4805052;29;20590;-77
2021/12/08 07:38:49;;;;;;;6.45;2.72;;;;;;;-1.03;86.23;100573.50;4804998;29;20057;-77
2021/12/08 07:41:31;;;;;;;7.65;3.70;;;;;;;-0.95;86.81;100557.88;4807352;29;20059;-77
2021/12/08 07:43:59;;;;;;;6.38;3.35;;;;;;;-0.93;86.47;100565.66;4808644;29;20035;-77
2021/12/08 07:46:34;;;;;;;7.13;3.80;;;;;;;-0.98;86.84;100584.53;4807523;29;20461;-77
2021/12/08 07:49:26;;;;;;;5.18;2.58;;;;;;;-0.97;87.20;100574.81;4805848;29;20046;-77
2021/12/08 07:51:57;;;;;;;7.28;3.80;;;;;;;-0.83;86.75;100571.00;4805201;29;20035;-77
2021/12/08 07:54:23;;;;;;;6.47;3.85;;;;;;;-1.10;87.29;100555.69;4805724;29;20045;-77
2021/12/08 07:56:52;;;;;;;5.65;3.72;;;;;;;-0.95;87.14;100568.44;4805445;29;20037;-77
2021/12/08 07:59:20;;;;;;;11.52;4.60;;;;;;;-0.81;87.52;100579.63;4805967;29;20027;-77
2021/12/08 08:01:49;;;;;;;8.93;4.90;;;;;;;-0.83;87.20;100576.28;4802941;29;20062;-77
2021/12/08 08:04:21;;;;;;;7.35;4.60;;;;;;;-1.00;87.99;100578.53;4809576;29;20106;-77
2021/12/08 08:06:51;;;;;;;7.25;4.50;;;;;;;-0.84;88.08;100578.06;4809177;29;20055;-77
2021/12/08 08:09:22;;;;;;;8.55;5.32;;;;;;;-0.80;87.70;100582.13;4807064;29;20035;-77
2021/12/08 08:11:57;;;;;;;8.02;5.05;;;;;;;-0.96;88.54;100574.69;4813452;29;20479;-77
2021/12/08 08:14:49;;;;;;;9.30;5.32;;;;;;;-0.90;89.09;100575.97;4810346;29;20031;-77
2021/12/08 08:17:17;;;;;;;6.28;3.95;;;;;;;-0.88;88.60;100573.19;4808869;29;20270;-77
2021/12/08 08:19:45;;;;;;;7.20;4.40;;;;;;;-0.77;88.25;100581.03;4809153;29;20450;-77
2021/12/08 08:22:16;;;;;;;8.35;5.18;;;;;;;-0.93;89.20;100572.75;4808548;29;20046;-77
2021/12/08 08:24:41;;;;;;;7.45;5.00;;;;;;;-0.72;88.62;100584.97;4807503;29;20027;-77
2021/12/08 08:27:10;;;;;;;10.20;5.45;;;;;;;-0.69;88.65;100578.59;4809003;29;20083;-77
2021/12/08 08:29:36;;;;;;;9.18;5.25;;;;;;;-0.78;89.15;100582.00;4806607;29;20087;-77
2021/12/08 08:32:20;;;;;;;9.95;4.78;;;;;;;-0.69;88.99;100581.22;4809313;29;20061;-77
2021/12/08 08:34:49;;;;;;;7.10;4.47;;;;;;;-0.77;89.75;100588.97;4806950;29;20274;-77
2021/12/08 08:37:16;;;;;;;10.65;5.45;;;;;;;-0.71;89.23;100591.09;4809498;29;20097;-77
2021/12/08 08:39:49;;;;;;;11.98;6.35;;;;;;;-0.72;89.37;100581.50;4807108;29;20055;-77
2021/12/08 08:42:21;;;;;;;8.95;5.88;;;;;;;-0.71;89.64;100583.16;4809378;29;20031;-77
2021/12/08 08:44:50;;;;;;;10.48;5.80;;;;;;;-0.74;89.77;100581.59;4809968;29;20038;-77
2021/12/08 08:47:39;;;;;;;9.50;5.68;;;;;;;-0.76;90.34;100588.00;4824437;29;20111;-77
2021/12/08 08:50:08;;;;;;;9.95;6.10;;;;;;;-0.68;89.71;100584.69;4818222;29;20121;-77
2021/12/08 08:52:39;;;;;;;10.15;5.82;;;;;;;-0.76;89.81;100594.13;4809824;29;20039;-77
2021/12/08 08:55:12;;;;;;;10.48;6.00;;;;;;;-0.83;90.29;100587.69;4807801;29;20023;-77
2021/12/08 08:57:41;;;;;;;6.50;4.40;;;;;;;-0.78;90.09;100587.28;4805431;29;20496;-77
2021/12/08 09:00:30;;;;;;;10.15;5.68;;;;;;;-0.76;90.74;100577.44;4808871;29;20043;-77
2021/12/08 09:03:03;;;;;;;10.88;6.50;;;;;;;-0.73;90.76;100583.31;4808813;29;20042;-77
2021/12/08 09:05:51;;;;;;;8.43;5.47;;;;;;;-0.77;91.47;100587.16;4808336;29;20082;-77
2021/12/08 09:08:20;;;;;;;8.82;5.72;;;;;;;-0.66;90.73;100590.66;4806818;29;20049;-77
2021/12/08 09:11:15;;;;;;;10.50;6.50;;;;;;;-0.71;91.16;100580.50;4808270;29;20454;-77
2021/12/08 09:14:05;;;;;;;11.00;7.05;;;;;;;-0.64;90.89;100586.09;4807019;29;20034;-79
2021/12/08 09:16:46;;;;;;;12.68;7.07;;;;;;;-0.58;90.92;100575.00;4808811;29;20059;-77
2021/12/08 09:19:20;;;;;;;11.70;7.25;;;;;;;-0.56;90.95;100589.78;4811173;29;20038;-78
2021/12/08 09:22:10;;;;;;;12.77;7.78;;;;;;;-0.44;90.89;100594.94;4808453;29;20449;-77
2021/12/08 09:25:16;;;;;;;14.23;7.70;;;;;;;-0.44;90.75;100587.03;4790473;29;20049;-77
2021/12/08 09:27:47;;;;;;;12.15;7.63;;;;;;;-0.33;90.35;100589.56;4795605;29;20035;-78
2021/12/08 09:30:34;;;;;;;12.18;7.47;;;;;;;-0.45;91.34;100595.94;4808524;29;20046;-77
2021/12/08 09:33:13;;;;;;;12.18;7.63;;;;;;;-0.38;90.92;100597.91;4806794;29;20038;-77
2021/12/08 09:35:48;;;;;;;13.43;7.80;;;;;;;-0.38;91.42;100607.63;4807033;29;20412;-77
2021/12/08 09:38:22;;;;;;;;;;;;;;;-0.35;91.06;100596.81;4806830;29;20462;-77
2021/12/08 09:40:57;;;;;;;15.18;7.53;;;;;;;-0.27;91.08;100603.06;4807429;29;19920;-78
2021/12/08 09:43:33;;;;;;;11.63;7.00;;;;;;;-0.44;90.80;100582.56;4807503;29;20164;-77
2021/12/08 09:46:12;;;;;;;13.23;8.02;;;;;;;-0.41;92.12;100618.47;4801707;29;20344;-77
2021/12/08 09:48:42;;;;;;;14.68;8.32;;;;;;;-0.30;91.36;100608.66;4803917;29;20031;-77
2021/12/08 09:51:08;;;;;;;11.32;7.57;;;;;;;-0.25;91.20;100619.66;4806255;29;20039;-77
2021/12/08 09:53:34;;;;;;;11.30;7.43;;;;;;;-0.30;91.55;100611.31;4806094;29;20053;-77
2021/12/08 09:56:01;;;;;;;14.10;8.32;;;;;;;-0.29;91.82;100606.84;4807956;29;20030;-77
2021/12/08 09:58:27;;;;;;;12.65;8.52;;;;;;;-0.34;91.85;100596.66;4808834;29;20034;-77
2021/12/08 10:00:57;;;;;;;11.35;7.72;;;;;;;-0.41;92.05;100587.59;4807844;29;20524;-77
2021/12/08 10:03:24;;;;;;;15.48;8.40;;;;;;;-0.38;91.91;100575.91;4805705;29;20031;-77
2021/12/08 10:05:50;;;;;;;13.02;8.38;;;;;;;-0.20;91.84;100589.31;4807737;29;20129;-77
2021/12/08 10:08:16;;;;;;;14.52;8.20;;;;;;;-0.20;91.71;100590.16;4805570;29;20469;-77
2021/12/08 10:10:44;;;;;;;18.75;9.15;;;;;;;-0.19;91.69;100583.09;4805688;29;20050;-77
2021/12/08 10:13:12;;;;;;;16.00;8.50;;;;;;;-0.16;91.61;100596.03;4807545;29;20046;-77
2021/12/08 10:15:37;;;;;;;14.60;8.18;;;;;;;-0.26;92.25;100580.97;4820925;29;20050;-77
2021/12/08 10:18:05;;;;;;;13.27;8.77;;;;;;;-0.09;91.52;100587.41;4805065;29;20050;-77
2021/12/08 10:20:35;;;;;;;17.70;9.60;;;;;;;-0.09;91.76;100570.72;4821137;29;20035;-77
2021/12/08 10:23:20;;;;;;;12.40;8.07;;;;;;;-0.20;91.98;100562.88;4807840;29;20019;-77
2021/12/08 10:25:59;;;;;;;14.32;8.02;;;;;;;-0.17;92.13;100563.44;4820438;29;20039;-78
2021/12/08 10:28:36;;;;;;;14.63;8.65;;;;;;;-0.03;91.68;100555.13;4809661;29;20045;-77
2021/12/08 10:31:15;;;;;;;11.95;7.60;;;;;;;-0.27;92.69;100542.25;4810116;29;20053;-78
2021/12/08 10:34:04;;;;;;;12.68;7.95;;;;;;;-0.15;92.58;100550.94;4807119;29;20030;-77
2021/12/08 10:39:28;;;;;;;14.45;9.05;;;;;;;-0.06;92.10;100536.91;4808692;29;20393;-78
2021/12/08 10:42:18;;;;;;;14.30;6.55;;;;;;;-0.16;91.94;100525.47;4808771;29;20050;-78
2021/12/08 10:45:12;;;;;;;14.98;9.13;;;;;;;0.05;91.39;100543.03;4808997;29;20035;-77
2021/12/08 10:47:49;;;;;;;13.30;8.20;;;;;;;0.08;91.61;100533.00;4811554;29;20027;-77
2021/12/08 10:56:10;;;;;;;12.77;8.40;;;;;;;0.25;91.10;100515.59;4788589;30;20084;-77
2021/12/08 10:58:39;;;;;;;13.80;8.85;;;;;;;0.22;91.26;100510.59;4799391;29;20103;-78
2021/12/08 11:01:26;;;;;;;15.13;8.88;;;;;;;0.27;91.01;100511.03;4806353;29;20061;-78
2021/12/08 11:04:04;;;;;;;14.00;8.57;;;;;;;0.20;91.06;100512.56;4805159;29;20042;-77
2021/12/08 11:06:36;;;;;;;14.73;8.50;;;;;;;0.28;91.33;100499.44;4807583;29;20369;-78
2021/12/08 11:09:06;;;;;;;16.13;10.55;;;;;;;0.24;91.29;100503.38;4791990;29;20104;-77
2021/12/08 11:11:35;;;;;;;19.92;12.02;;;;;;;0.29;91.29;100505.56;4787953;29;20351;-78
2021/12/08 11:14:05;;;;;;;13.98;9.32;;;;;;;0.22;90.95;100500.84;4798378;29;20061;-78
2021/12/08 11:16:41;;;;;;;14.75;9.20;;;;;;;0.27;91.03;100495.16;4807406;29;20033;-77
2021/12/08 11:19:14;;;;;;;16.65;9.88;;;;;;;0.34;90.86;100490.97;4819544;29;20031;-78
2021/12/08 11:21:47;;;;;;;16.48;10.77;;;;;;;0.33;90.94;100497.22;4806247;29;20035;-78
2021/12/08 11:24:30;;;;;;;13.63;8.50;;;;;;;0.19;91.25;100474.66;4805207;29;20054;-78
2021/12/08 11:26:57;;;;;;;15.13;9.18;;;;;;;0.42;90.60;100488.44;4806056;29;20373;-77
2021/12/08 11:29:25;;;;;;;13.95;8.25;;;;;;;0.41;90.55;100488.59;4805135;29;20143;-78
2021/12/08 11:31:57;;;;;;;15.95;8.85;;;;;;;0.52;90.33;100483.13;4805132;29;20034;-77
2021/12/08 11:34:32;;;;;;;12.73;7.88;;;;;;;0.39;90.29;100475.47;4807127;29;20031;-77
2021/12/08 11:37:07;;;;;;;12.93;8.90;;;;;;;0.56;90.49;100486.31;4806596;29;20039;-77
2021/12/08 11:39:43;;;;;;;;;;;;;;;0.46;90.00;100479.25;4816025;29;20065;-77
2021/12/08 11:42:16;;;;;;;13.38;7.40;;;;;;;0.47;90.08;100480.06;4810077;29;19945;-77
2021/12/08 11:44:47;;;;;;;17.80;8.00;;;;;;;0.66;90.07;100500.38;4809953;29;20031;-77
2021/12/08 11:47:26;;;;;;;11.50;7.68;;;;;;;0.74;89.50;100494.38;4808490;29;20031;-77
2021/12/08 11:49:56;;;;;;;11.35;7.57;;;;;;;0.66;90.16;100489.78;4809397;29;20027;-76
2021/12/08 11:52:29;;;;;;;13.23;8.13;;;;;;;0.53;89.84;100479.50;4816528;29;20141;-77
2021/12/08 11:55:04;;;;;;;10.70;6.80;;;;;;;0.68;89.98;100487.84;4809842;29;20023;-77
2021/12/08 11:57:37;;;;;;;14.05;7.68;;;;;;;0.69;90.09;100497.44;4807765;29;20039;-77
2021/12/08 12:00:14;;;;;;;12.57;7.68;;;;;;;0.73;89.84;100492.69;4809882;29;20327;-76
2021/12/08 12:02:43;;;;;;;9.88;7.25;;;;;;;0.71;89.85;100498.13;4808942;29;20358;-76
2021/12/08 12:05:12;;;;;;;12.95;7.93;;;;;;;0.72;90.17;100497.16;4810433;29;20031;-76
2021/12/08 12:07:39;;;;;;;13.88;7.80;;;;;;;0.81;89.57;100485.72;4807603;29;20453;-77
2021/12/08 12:10:09;;;;;;;12.02;7.80;;;;;;;0.64;89.76;100470.56;4810049;29;20485;-76
2021/12/08 12:12:37;;;;;;;10.98;6.95;;;;;;;0.64;90.05;100478.50;4809454;29;20038;-76
2021/12/08 12:15:05;;;;;;;13.88;8.55;;;;;;;0.52;90.01;100456.66;4810116;29;20367;-76
2021/12/08 12:17:30;;;;;;;11.55;7.47;;;;;;;0.60;90.32;100479.78;4808162;29;20027;-76
2021/12/08 12:20:15;;;;;;;12.88;8.15;;;;;;;0.73;89.72;100471.50;4809845;29;20077;-76
2021/12/08 12:23:07;;;;;;;12.65;8.60;;;;;;;0.70;89.97;100483.25;4807443;29;20129;-76
2021/12/08 12:26:09;;;;;;;10.50;7.03;;;;;;;0.75;89.17;100474.84;4808043;29;20550;-76
2021/12/08 12:28:46;;;;;;;9.35;6.53;;;;;;;0.72;89.77;100475.13;4770096;30;20106;-76
2021/12/08 12:31:44;;;;;;;12.10;7.60;;;;;;;0.67;89.48;100488.81;4788646;29;20366;-76
2021/12/08 12:34:23;;;;;;;11.50;7.07;;;;;;;0.65;90.00;100469.59;4789577;29;20032;-76
2021/12/08 12:36:48;;;;;;;11.98;7.70;;;;;;;0.84;89.26;100488.06;4799181;29;20471;-76
2021/12/08 12:39:27;;;;;;;13.75;7.88;;;;;;;0.81;89.82;100474.28;4807220;29;20182;-76
2021/12/08 12:41:58;;;;;;;18.77;11.65;;;;;;;0.84;89.90;100477.47;4809190;29;20134;-76